Greenleafton, Minnesota
Current Conditions -  °F | °C
As of 1:56 PM on Friday 24 Oct 2014 (Local Time) from KFKA Reporting Station
Haze Haze  
Wind Chill: 55°   Ceiling: 400
Heat Index: 55°   Visibility: 4mi
Dew Point: 53°   Wind: 15mph
Humidity: 93%   Direction: 200°SSW
Pressure: 29.9"   Gusts: 22mph
Location:  43.6343°N, 92.1426°W
Report Text: KFKA 241856Z AUTO 20013G19KT 4SM BR OVC004 13/12 A2990 RMK AO2 T01270116
Loading
Personal Weather Stations






























Interactive Weather Map
Tropical Storm Tracking
New forecast layout! Learn more

10-Day Weather Forecast

Advertisements
Track Severe Weather on mobile